White Mills, Kentucky
Current Conditions -  °F | °C
As of 12:58 AM on Monday 22 Dec 2014 (Local Time) from KFTK Reporting Station
Overcast Overcast  
Wind Chill: 27°   Ceiling: 4300
Heat Index: 33°   Visibility: 10mi
Dew Point: 28°   Wind: 7mph
Humidity: 83%   Direction: 70°ENE
Pressure: 30.01"   Gusts: NA
Location:  37.56°N, 86.03°W
Report Text: KFTK 220558Z AUTO 07006KT 10SM OVC043 01/M02 A3001 RMK AO2 SLP171 T00051021 10019 21003 57021
Loading
Personal Weather Stations






























Interactive Weather Map New forecast layout! Learn more

10-Day Weather Forecast

Advertisements
Track Severe Weather on mobile